sensor_id;sensor_type;location;lat;lon;timestamp;pressure;altitude;pressure_sealevel;temperature;humidity
29385;BME280;16367;48.736;9.218;2023-04-02T00:00:22;-23385.94;;;6.88;100.00
29385;BME280;16367;48.736;9.218;2023-04-02T00:02:29;-23385.13;;;6.85;100.00
29385;BME280;16367;48.736;9.218;2023-04-02T00:04:33;-23384.03;;;6.82;100.00
29385;BME280;16367;48.736;9.218;2023-04-02T00:06:39;-23383.22;;;6.79;100.00
29385;BME280;16367;48.736;9.218;2023-04-02T00:08:47;-23383.22;;;6.79;100.00
29385;BME280;16367;48.736;9.218;2023-04-02T00:10:51;-23383.88;;;6.81;100.00
29385;BME280;16367;48.736;9.218;2023-04-02T00:12:59;-23383.38;;;6.80;100.00
29385;BME280;16367;48.736;9.218;2023-04-02T00:15:02;-23381.47;;;6.73;100.00
29385;BME280;16367;48.736;9.218;2023-04-02T00:17:05;-23383.69;;;6.81;100.00
29385;BME280;16367;48.736;9.218;2023-04-02T00:19:13;-23381.78;;;6.74;100.00
29385;BME280;16367;48.736;9.218;2023-04-02T00:21:20;-23381.78;;;6.74;100.00
29385;BME280;16367;48.736;9.218;2023-04-02T00:23:23;-23382.44;;;6.76;100.00
29385;BME280;16367;48.736;9.218;2023-04-02T00:25:29;-23381.97;;;6.75;100.00
29385;BME280;16367;48.736;9.218;2023-04-02T00:27:32;-23379.72;;;6.68;100.00
29385;BME280;16367;48.736;9.218;2023-04-02T00:29:34;-23381.97;;;6.75;100.00
29385;BME280;16367;48.736;9.218;2023-04-02T00:31:40;-23383.22;;;6.79;100.00
29385;BME280;16367;48.736;9.218;2023-04-02T00:33:44;-23382.75;;;6.78;100.00
29385;BME280;16367;48.736;9.218;2023-04-02T00:35:47;-23382.75;;;6.78;100.00
29385;BME280;16367;48.736;9.218;2023-04-02T00:37:52;-23384.66;;;6.84;100.00
29385;BME280;16367;48.736;9.218;2023-04-02T00:39:58;-23384.81;;;6.84;100.00
29385;BME280;16367;48.736;9.218;2023-04-02T00:42:03;-23384.19;;;6.82;100.00
29385;BME280;16367;48.736;9.218;2023-04-02T00:44:10;-23384.19;;;6.82;100.00
29385;BME280;16367;48.736;9.218;2023-04-02T00:46:15;-23386.56;;;6.90;100.00
29385;BME280;16367;48.736;9.218;2023-04-02T00:48:36;-23386.56;;;6.90;100.00
29385;BME280;16367;48.736;9.218;2023-04-02T00:50:43;-23385.78;;;6.87;100.00
29385;BME280;16367;48.736;9.218;2023-04-02T00:52:48;-23387.69;;;6.93;100.00
29385;BME280;16367;48.736;9.218;2023-04-02T00:55:04;-23388.16;;;6.95;100.00
29385;BME280;16367;48.736;9.218;2023-04-02T00:57:14;-23391.00;;;7.04;100.00
29385;BME280;16367;48.736;9.218;2023-04-02T00:59:24;-23391.00;;;7.04;100.00
29385;BME280;16367;48.736;9.218;2023-04-02T01:01:33;-23388.78;;;6.97;100.00
29385;BME280;16367;48.736;9.218;2023-04-02T01:03:37;-23390.69;;;7.03;100.00
29385;BME280;16367;48.736;9.218;2023-04-02T01:05:41;-23389.75;;;7.00;100.00
29385;BME280;16367;48.736;9.218;2023-04-02T01:08:01;-23391.66;;;7.06;100.00
29385;BME280;16367;48.736;9.218;2023-04-02T01:10:17;-23391.00;;;7.04;100.00
29385;BME280;16367;48.736;9.218;2023-04-02T01:12:35;-23389.91;;;7.00;100.00
29385;BME280;16367;48.736;9.218;2023-04-02T01:14:45;-23389.44;;;6.99;100.00
29385;BME280;16367;48.736;9.218;2023-04-02T01:16:56;-23390.22;;;7.01;100.00
29385;BME280;16367;48.736;9.218;2023-04-02T01:19:07;-23391.81;;;7.06;100.00
29385;BME280;16367;48.736;9.218;2023-04-02T01:21:23;-23391.66;;;7.06;100.00
29385;BME280;16367;48.736;9.218;2023-04-02T01:23:34;-23393.72;;;7.12;100.00
29385;BME280;16367;48.736;9.218;2023-04-02T01:25:42;-23393.56;;;7.12;100.00
29385;BME280;16367;48.736;9.218;2023-04-02T01:27:52;-23392.13;;;7.07;100.00
29385;BME280;16367;48.736;9.218;2023-04-02T01:30:00;-23391.00;;;7.04;100.00
29385;BME280;16367;48.736;9.218;2023-04-02T01:32:07;-23390.22;;;7.01;100.00
29385;BME280;16367;48.736;9.218;2023-04-02T01:34:14;-23393.22;;;7.11;100.00
29385;BME280;16367;48.736;9.218;2023-04-02T01:36:24;-23391.66;;;7.06;100.00
29385;BME280;16367;48.736;9.218;2023-04-02T01:38:34;-23391.00;;;7.04;100.00
29385;BME280;16367;48.736;9.218;2023-04-02T01:40:44;-23391.66;;;7.06;100.00
29385;BME280;16367;48.736;9.218;2023-04-02T01:42:53;-23393.56;;;7.12;100.00
29385;BME280;16367;48.736;9.218;2023-04-02T01:45:04;-23397.69;;;7.25;100.00
29385;BME280;16367;48.736;9.218;2023-04-02T01:47:09;-23393.56;;;7.12;100.00
29385;BME280;16367;48.736;9.218;2023-04-02T01:49:15;-23392.91;;;7.10;100.00
29385;BME280;16367;48.736;9.218;2023-04-02T01:51:26;-23394.34;;;7.14;100.00
29385;BME280;16367;48.736;9.218;2023-04-02T01:53:30;-23392.13;;;7.07;100.00
29385;BME280;16367;48.736;9.218;2023-04-02T01:55:38;-23393.22;;;7.11;100.00
29385;BME280;16367;48.736;9.218;2023-04-02T01:57:44;-23391.81;;;7.06;100.00
29385;BME280;16367;48.736;9.218;2023-04-02T01:59:48;-23392.44;;;7.08;100.00
29385;BME280;16367;48.736;9.218;2023-04-02T02:01:57;-23395.16;;;7.17;100.00
29385;BME280;16367;48.736;9.218;2023-04-02T02:04:02;-23392.44;;;7.08;100.00
29385;BME280;16367;48.736;9.218;2023-04-02T02:06:05;-23394.34;;;7.14;100.00
29385;BME280;16367;48.736;9.218;2023-04-02T02:08:20;-23390.38;;;7.02;100.00
29385;BME280;16367;48.736;9.218;2023-04-02T02:10:27;-23389.75;;;7.00;100.00
29385;BME280;16367;48.736;9.218;2023-04-02T02:12:30;-23388.47;;;6.96;100.00
29385;BME280;16367;48.736;9.218;2023-04-02T02:14:33;-23391.00;;;7.04;100.00
29385;BME280;16367;48.736;9.218;2023-04-02T02:16:37;-23390.22;;;7.01;100.00
29385;BME280;16367;48.736;9.218;2023-04-02T02:18:45;-23390.22;;;7.01;100.00
29385;BME280;16367;48.736;9.218;2023-04-02T02:20:51;-23388.78;;;6.97;100.00
29385;BME280;16367;48.736;9.218;2023-04-02T02:22:55;-23390.69;;;7.03;100.00
29385;BME280;16367;48.736;9.218;2023-04-02T02:25:01;-23389.91;;;7.00;100.00
29385;BME280;16367;48.736;9.218;2023-04-02T02:27:35;-23395.78;;;7.19;100.00
29385;BME280;16367;48.736;9.218;2023-04-02T02:29:42;-23396.88;;;7.22;100.00
29385;BME280;16367;48.736;9.218;2023-04-02T02:31:51;-23391.34;;;7.05;100.00
29385;BME280;16367;48.736;9.218;2023-04-02T02:33:59;-23395.00;;;7.16;100.00
29385;BME280;16367;48.736;9.218;2023-04-02T02:36:06;-23395.16;;;7.17;100.00
29385;BME280;16367;48.736;9.218;2023-04-02T02:38:39;-23395.47;;;7.18;100.00
29385;BME280;16367;48.736;9.218;2023-04-02T02:40:44;-23394.34;;;7.14;100.00
29385;BME280;16367;48.736;9.218;2023-04-02T02:42:51;-23394.03;;;7.13;100.00
29385;BME280;16367;48.736;9.218;2023-04-02T02:44:57;-23397.69;;;7.25;100.00
29385;BME280;16367;48.736;9.218;2023-04-02T02:47:03;-23393.22;;;7.11;100.00
29385;BME280;16367;48.736;9.218;2023-04-02T02:49:14;-23394.81;;;7.16;100.00
29385;BME280;16367;48.736;9.218;2023-04-02T02:51:20;-23395.47;;;7.18;100.00
29385;BME280;16367;48.736;9.218;2023-04-02T02:53:26;-23391.81;;;7.06;100.00
29385;BME280;16367;48.736;9.218;2023-04-02T02:55:30;-23394.66;;;7.15;100.00
29385;BME280;16367;48.736;9.218;2023-04-02T02:57:37;-23397.53;;;7.24;100.00
29385;BME280;16367;48.736;9.218;2023-04-02T02:59:41;-23395.16;;;7.17;100.00
29385;BME280;16367;48.736;9.218;2023-04-02T03:01:45;-23395.78;;;7.19;100.00
29385;BME280;16367;48.736;9.218;2023-04-02T03:03:51;-23395.16;;;7.17;100.00
29385;BME280;16367;48.736;9.218;2023-04-02T03:05:59;-23399.59;;;7.31;100.00
29385;BME280;16367;48.736;9.218;2023-04-02T03:08:05;-23396.41;;;7.21;100.00
29385;BME280;16367;48.736;9.218;2023-04-02T03:10:15;-23396.09;;;7.20;100.00
29385;BME280;16367;48.736;9.218;2023-04-02T03:12:35;-23393.22;;;7.11;100.00
29385;BME280;16367;48.736;9.218;2023-04-02T03:14:45;-23392.59;;;7.09;100.00
29385;BME280;16367;48.736;9.218;2023-04-02T03:16:54;-23397.38;;;7.24;100.00
29385;BME280;16367;48.736;9.218;2023-04-02T03:19:01;-23394.50;;;7.15;100.00
29385;BME280;16367;48.736;9.218;2023-04-02T03:21:16;-23396.41;;;7.21;100.00
29385;BME280;16367;48.736;9.218;2023-04-02T03:23:26;-23397.69;;;7.25;100.00
29385;BME280;16367;48.736;9.218;2023-04-02T03:25:35;-23395.63;;;7.18;100.00
29385;BME280;16367;48.736;9.218;2023-04-02T03:27:43;-23396.25;;;7.20;100.00
29385;BME280;16367;48.736;9.218;2023-04-02T03:29:57;-23394.81;;;7.16;100.00
29385;BME280;16367;48.736;9.218;2023-04-02T03:32:04;-23395.78;;;7.19;100.00
29385;BME280;16367;48.736;9.218;2023-04-02T03:34:10;-23395.16;;;7.17;100.00
29385;BME280;16367;48.736;9.218;2023-04-02T03:36:19;-23395.78;;;7.19;100.00
29385;BME280;16367;48.736;9.218;2023-04-02T03:38:26;-23396.88;;;7.22;100.00
29385;BME280;16367;48.736;9.218;2023-04-02T03:40:33;-23398.47;;;7.27;100.00
29385;BME280;16367;48.736;9.218;2023-04-02T03:42:41;-23394.50;;;7.15;100.00
29385;BME280;16367;48.736;9.218;2023-04-02T03:44:50;-23394.34;;;7.14;100.00
29385;BME280;16367;48.736;9.218;2023-04-02T03:46:56;-23392.28;;;7.08;100.00
29385;BME280;16367;48.736;9.218;2023-04-02T03:49:04;-23394.81;;;7.16;100.00
29385;BME280;16367;48.736;9.218;2023-04-02T03:51:12;-23392.13;;;7.07;100.00
29385;BME280;16367;48.736;9.218;2023-04-02T03:53:17;-23392.59;;;7.09;100.00
29385;BME280;16367;48.736;9.218;2023-04-02T03:55:25;-23390.69;;;7.03;100.00
29385;BME280;16367;48.736;9.218;2023-04-02T03:57:33;-23391.00;;;7.04;100.00
29385;BME280;16367;48.736;9.218;2023-04-02T03:59:40;-23391.97;;;7.07;100.00
29385;BME280;16367;48.736;9.218;2023-04-02T04:01:52;-23391.97;;;7.07;100.00
29385;BME280;16367;48.736;9.218;2023-04-02T04:04:02;-23390.38;;;7.02;100.00
29385;BME280;16367;48.736;9.218;2023-04-02T04:06:09;-23393.56;;;7.12;100.00
29385;BME280;16367;48.736;9.218;2023-04-02T04:08:18;-23394.34;;;7.14;100.00
29385;BME280;16367;48.736;9.218;2023-04-02T04:10:24;-23394.81;;;7.16;100.00
29385;BME280;16367;48.736;9.218;2023-04-02T04:12:30;-23390.84;;;7.03;100.00
29385;BME280;16367;48.736;9.218;2023-04-02T04:14:35;-23390.22;;;7.01;100.00
29385;BME280;16367;48.736;9.218;2023-04-02T04:16:40;-23389.75;;;7.00;100.00
29385;BME280;16367;48.736;9.218;2023-04-02T04:18:48;-23390.53;;;7.02;100.00
29385;BME280;16367;48.736;9.218;2023-04-02T04:21:00;-23389.44;;;6.99;100.00
29385;BME280;16367;48.736;9.218;2023-04-02T04:23:17;-23385.94;;;6.88;100.00
29385;BME280;16367;48.736;9.218;2023-04-02T04:25:28;-23387.69;;;6.93;100.00
29385;BME280;16367;48.736;9.218;2023-04-02T04:27:38;-23387.34;;;6.92;100.00
29385;BME280;16367;48.736;9.218;2023-04-02T04:29:47;-23389.25;;;6.98;100.00
29385;BME280;16367;48.736;9.218;2023-04-02T04:31:51;-23389.44;;;6.99;100.00
29385;BME280;16367;48.736;9.218;2023-04-02T04:33:57;-23386.41;;;6.89;100.00
29385;BME280;16367;48.736;9.218;2023-04-02T04:36:16;-23389.09;;;6.98;100.00
29385;BME280;16367;48.736;9.218;2023-04-02T04:38:32;-23388.00;;;6.94;100.00
29385;BME280;16367;48.736;9.218;2023-04-02T04:40:44;-23385.94;;;6.88;100.00
29385;BME280;16367;48.736;9.218;2023-04-02T04:42:53;-23389.09;;;6.98;100.00
29385;BME280;16367;48.736;9.218;2023-04-02T04:45:01;-23387.84;;;6.94;100.00
29385;BME280;16367;48.736;9.218;2023-04-02T04:47:12;-23387.84;;;6.94;100.00
29385;BME280;16367;48.736;9.218;2023-04-02T04:49:19;-23387.19;;;6.92;100.00
29385;BME280;16367;48.736;9.218;2023-04-02T04:51:28;-23386.41;;;6.89;100.00
29385;BME280;16367;48.736;9.218;2023-04-02T04:53:45;-23387.84;;;6.94;100.00
29385;BME280;16367;48.736;9.218;2023-04-02T04:55:49;-23388.78;;;6.97;100.00
29385;BME280;16367;48.736;9.218;2023-04-02T04:57:55;-23388.16;;;6.95;100.00
29385;BME280;16367;48.736;9.218;2023-04-02T05:00:04;-23387.19;;;6.92;100.00
29385;BME280;16367;48.736;9.218;2023-04-02T05:02:12;-23390.06;;;7.01;100.00
29385;BME280;16367;48.736;9.218;2023-04-02T05:04:20;-23388.94;;;6.97;100.00
29385;BME280;16367;48.736;9.218;2023-04-02T05:06:34;-23391.34;;;7.05;100.00
29385;BME280;16367;48.736;9.218;2023-04-02T05:08:42;-23393.09;;;7.10;100.00
29385;BME280;16367;48.736;9.218;2023-04-02T05:10:49;-23392.91;;;7.10;100.00
29385;BME280;16367;48.736;9.218;2023-04-02T05:12:56;-23391.81;;;7.06;100.00
29385;BME280;16367;48.736;9.218;2023-04-02T05:15:03;-23393.88;;;7.13;100.00
29385;BME280;16367;48.736;9.218;2023-04-02T05:17:15;-23391.00;;;7.04;100.00
29385;BME280;16367;48.736;9.218;2023-04-02T05:19:24;-23391.00;;;7.04;100.00
29385;BME280;16367;48.736;9.218;2023-04-02T05:21:34;-23391.00;;;7.04;100.00
29385;BME280;16367;48.736;9.218;2023-04-02T05:23:45;-23391.34;;;7.05;100.00
29385;BME280;16367;48.736;9.218;2023-04-02T05:25:54;-23390.22;;;7.01;100.00
29385;BME280;16367;48.736;9.218;2023-04-02T05:28:04;-23390.38;;;7.02;100.00
29385;BME280;16367;48.736;9.218;2023-04-02T05:30:27;-23390.84;;;7.03;100.00
29385;BME280;16367;48.736;9.218;2023-04-02T05:32:36;-23394.50;;;7.15;100.00
29385;BME280;16367;48.736;9.218;2023-04-02T05:34:45;-23394.50;;;7.15;100.00
29385;BME280;16367;48.736;9.218;2023-04-02T05:36:49;-23394.34;;;7.14;100.00
29385;BME280;16367;48.736;9.218;2023-04-02T05:38:55;-23393.56;;;7.12;100.00
29385;BME280;16367;48.736;9.218;2023-04-02T05:41:01;-23396.25;;;7.20;100.00
29385;BME280;16367;48.736;9.218;2023-04-02T05:43:07;-23392.75;;;7.09;100.00
29385;BME280;16367;48.736;9.218;2023-04-02T05:45:19;-23390.38;;;7.02;100.00
29385;BME280;16367;48.736;9.218;2023-04-02T05:47:26;-23394.19;;;7.14;100.00
29385;BME280;16367;48.736;9.218;2023-04-02T05:49:35;-23390.69;;;7.03;100.00
29385;BME280;16367;48.736;9.218;2023-04-02T05:51:45;-23394.03;;;7.13;100.00
29385;BME280;16367;48.736;9.218;2023-04-02T05:53:54;-23396.41;;;7.21;100.00
29385;BME280;16367;48.736;9.218;2023-04-02T05:56:01;-23398.31;;;7.27;100.00
29385;BME280;16367;48.736;9.218;2023-04-02T05:58:09;-23393.88;;;7.13;100.00
29385;BME280;16367;48.736;9.218;2023-04-02T06:00:56;-23393.88;;;7.13;100.00
29385;BME280;16367;48.736;9.218;2023-04-02T06:03:04;-23394.50;;;7.15;100.00
29385;BME280;16367;48.736;9.218;2023-04-02T06:05:12;-23402.13;;;7.39;100.00
29385;BME280;16367;48.736;9.218;2023-04-02T06:07:19;-23405.31;;;7.49;100.00
29385;BME280;16367;48.736;9.218;2023-04-02T06:09:29;-23395.78;;;7.19;100.00
29385;BME280;16367;48.736;9.218;2023-04-02T06:11:39;-23393.88;;;7.13;100.00
29385;BME280;16367;48.736;9.218;2023-04-02T06:13:43;-23396.09;;;7.20;100.00
29385;BME280;16367;48.736;9.218;2023-04-02T06:15:46;-23394.50;;;7.15;100.00
29385;BME280;16367;48.736;9.218;2023-04-02T06:17:52;-23392.91;;;7.10;100.00
29385;BME280;16367;48.736;9.218;2023-04-02T06:20:00;-23395.94;;;7.19;100.00
29385;BME280;16367;48.736;9.218;2023-04-02T06:22:13;-23394.81;;;7.16;100.00
29385;BME280;16367;48.736;9.218;2023-04-02T06:24:22;-23393.22;;;7.11;100.00
29385;BME280;16367;48.736;9.218;2023-04-02T06:26:31;-23396.09;;;7.20;100.00
29385;BME280;16367;48.736;9.218;2023-04-02T06:28:39;-23392.28;;;7.08;100.00
29385;BME280;16367;48.736;9.218;2023-04-02T06:30:46;-23397.38;;;7.24;100.00
29385;BME280;16367;48.736;9.218;2023-04-02T06:32:49;-23397.06;;;7.23;100.00
29385;BME280;16367;48.736;9.218;2023-04-02T06:34:52;-23398.66;;;7.28;100.00
29385;BME280;16367;48.736;9.218;2023-04-02T06:36:57;-23397.69;;;7.25;100.00
29385;BME280;16367;48.736;9.218;2023-04-02T06:39:04;-23399.28;;;7.30;100.00
29385;BME280;16367;48.736;9.218;2023-04-02T06:41:14;-23401.97;;;7.38;100.00
29385;BME280;16367;48.736;9.218;2023-04-02T06:43:25;-23401.66;;;7.37;100.00
29385;BME280;16367;48.736;9.218;2023-04-02T06:45:37;-23403.25;;;7.42;100.00
29385;BME280;16367;48.736;9.218;2023-04-02T06:47:45;-23404.84;;;7.47;100.00
29385;BME280;16367;48.736;9.218;2023-04-02T06:49:51;-23409.75;;;7.63;100.00
29385;BME280;16367;48.736;9.218;2023-04-02T06:51:57;-23408.66;;;7.60;100.00
29385;BME280;16367;48.736;9.218;2023-04-02T06:54:02;-23408.50;;;7.59;100.00
29385;BME280;16367;48.736;9.218;2023-04-02T06:56:12;-23410.25;;;7.65;100.00
29385;BME280;16367;48.736;9.218;2023-04-02T06:58:22;-23405.94;;;7.51;100.00
29385;BME280;16367;48.736;9.218;2023-04-02T07:00:29;-23409.75;;;7.63;100.00
29385;BME280;16367;48.736;9.218;2023-04-02T07:02:36;-23409.13;;;7.61;100.00
29385;BME280;16367;48.736;9.218;2023-04-02T07:04:41;-23411.19;;;7.68;100.00
29385;BME280;16367;48.736;9.218;2023-04-02T07:06:44;-23408.00;;;7.58;100.00
29385;BME280;16367;48.736;9.218;2023-04-02T07:08:47;-23412.78;;;7.73;100.00
29385;BME280;16367;48.736;9.218;2023-04-02T07:10:49;-23415.31;;;7.81;100.00
29385;BME280;16367;48.736;9.218;2023-04-02T07:12:52;-23416.44;;;7.84;100.00
29385;BME280;16367;48.736;9.218;2023-04-02T07:14:56;-23420.25;;;7.96;100.00
29385;BME280;16367;48.736;9.218;2023-04-02T07:16:59;-23421.81;;;8.01;100.00
29385;BME280;16367;48.736;9.218;2023-04-02T07:19:02;-23420.56;;;7.97;100.00
29385;BME280;16367;48.736;9.218;2023-04-02T07:21:05;-23427.38;;;8.19;100.00
29385;BME280;16367;48.736;9.218;2023-04-02T07:23:08;-23419.28;;;7.93;100.00
29385;BME280;16367;48.736;9.218;2023-04-02T07:25:10;-23420.25;;;7.96;100.00
29385;BME280;16367;48.736;9.218;2023-04-02T07:27:13;-23417.53;;;7.88;100.00
29385;BME280;16367;48.736;9.218;2023-04-02T07:29:16;-23416.28;;;7.84;100.00
29385;BME280;16367;48.736;9.218;2023-04-02T07:31:23;-23420.41;;;7.97;100.00
29385;BME280;16367;48.736;9.218;2023-04-02T07:33:28;-23415.47;;;7.81;100.00
29385;BME280;16367;48.736;9.218;2023-04-02T07:35:31;-23420.88;;;7.98;100.00
29385;BME280;16367;48.736;9.218;2023-04-02T07:37:35;-23418.66;;;7.91;100.00
29385;BME280;16367;48.736;9.218;2023-04-02T07:39:38;-23420.56;;;7.97;100.00
29385;BME280;16367;48.736;9.218;2023-04-02T07:41:52;-23421.03;;;7.99;100.00
29385;BME280;16367;48.736;9.218;2023-04-02T07:43:55;-23422.16;;;8.02;100.00
29385;BME280;16367;48.736;9.218;2023-04-02T07:45:58;-23428.19;;;8.21;100.00
29385;BME280;16367;48.736;9.218;2023-04-02T07:48:05;-23427.22;;;8.18;100.00
29385;BME280;16367;48.736;9.218;2023-04-02T07:50:08;-23421.81;;;8.01;100.00
29385;BME280;16367;48.736;9.218;2023-04-02T07:52:10;-23427.84;;;8.20;100.00
29385;BME280;16367;48.736;9.218;2023-04-02T07:54:13;-23435.97;;;8.46;100.00
29385;BME280;16367;48.736;9.218;2023-04-02T07:56:18;-23430.72;;;8.30;100.00
29385;BME280;16367;48.736;9.218;2023-04-02T07:58:21;-23431.69;;;8.33;100.00
29385;BME280;16367;48.736;9.218;2023-04-02T08:00:24;-23434.06;;;8.40;100.00
29385;BME280;16367;48.736;9.218;2023-04-02T08:02:27;-23435.34;;;8.44;100.00
29385;BME280;16367;48.736;9.218;2023-04-02T08:04:32;-23432.94;;;8.37;100.00
29385;BME280;16367;48.736;9.218;2023-04-02T08:06:34;-23428.81;;;8.23;100.00
29385;BME280;16367;48.736;9.218;2023-04-02T08:08:37;-23430.56;;;8.29;100.00
29385;BME280;16367;48.736;9.218;2023-04-02T08:10:40;-23431.19;;;8.31;100.00
29385;BME280;16367;48.736;9.218;2023-04-02T08:12:42;-23435.47;;;8.45;100.00
29385;BME280;16367;48.736;9.218;2023-04-02T08:14:45;-23442.31;;;8.66;100.00
29385;BME280;16367;48.736;9.218;2023-04-02T08:16:49;-23444.38;;;8.73;100.00
29385;BME280;16367;48.736;9.218;2023-04-02T08:18:52;-23439.28;;;8.57;100.00
29385;BME280;16367;48.736;9.218;2023-04-02T08:20:56;-23442.63;;;8.67;100.00
29385;BME280;16367;48.736;9.218;2023-04-02T08:22:59;-23444.38;;;8.73;100.00
29385;BME280;16367;48.736;9.218;2023-04-02T08:25:04;-23452.31;;;8.98;100.00
29385;BME280;16367;48.736;9.218;2023-04-02T08:27:06;-23450.72;;;8.93;100.00
29385;BME280;16367;48.736;9.218;2023-04-02T08:29:09;-23452.31;;;8.98;100.00
29385;BME280;16367;48.736;9.218;2023-04-02T08:31:13;-23446.28;;;8.79;100.00
29385;BME280;16367;48.736;9.218;2023-04-02T08:33:15;-23450.56;;;8.92;100.00
29385;BME280;16367;48.736;9.218;2023-04-02T08:35:18;-23455.47;;;9.08;100.00
29385;BME280;16367;48.736;9.218;2023-04-02T08:37:25;-23465.47;;;9.40;100.00
29385;BME280;16367;48.736;9.218;2023-04-02T08:39:28;-23463.25;;;9.33;100.00
29385;BME280;16367;48.736;9.218;2023-04-02T08:41:36;-23453.91;;;9.03;100.00
29385;BME280;16367;48.736;9.218;2023-04-02T08:43:53;-23459.59;;;9.21;100.00
29385;BME280;16367;48.736;9.218;2023-04-02T08:46:07;-23466.25;;;9.42;100.00
29385;BME280;16367;48.736;9.218;2023-04-02T08:48:13;-23464.53;;;9.37;100.00
29385;BME280;16367;48.736;9.218;2023-04-02T08:50:25;-23458.19;;;9.17;100.00
29385;BME280;16367;48.736;9.218;2023-04-02T08:52:33;-23465.94;;;9.41;100.00
29385;BME280;16367;48.736;9.218;2023-04-02T08:54:37;-23465.47;;;9.40;100.00
29385;BME280;16367;48.736;9.218;2023-04-02T08:56:43;-23475.47;;;9.71;100.00
29385;BME280;16367;48.736;9.218;2023-04-02T08:58:50;-23463.88;;;9.35;100.00
29385;BME280;16367;48.736;9.218;2023-04-02T09:00:56;-23465.47;;;9.40;100.00
29385;BME280;16367;48.736;9.218;2023-04-02T09:03:02;-23471.81;;;9.60;100.00
29385;BME280;16367;48.736;9.218;2023-04-02T09:05:14;-23468.81;;;9.50;100.00
29385;BME280;16367;48.736;9.218;2023-04-02T09:07:18;-23458.97;;;9.19;100.00
29385;BME280;16367;48.736;9.218;2023-04-02T09:09:23;-23459.28;;;9.20;100.00
29385;BME280;16367;48.736;9.218;2023-04-02T09:11:33;-23460.25;;;9.23;100.00
29385;BME280;16367;48.736;9.218;2023-04-02T09:13:41;-23460.56;;;9.24;100.00
29385;BME280;16367;48.736;9.218;2023-04-02T09:15:47;-23469.13;;;9.51;100.00
29385;BME280;16367;48.736;9.218;2023-04-02T09:17:55;-23462.63;;;9.31;100.00
29385;BME280;16367;48.736;9.218;2023-04-02T09:20:12;-23465.94;;;9.41;100.00
29385;BME280;16367;48.736;9.218;2023-04-02T09:22:19;-23457.06;;;9.13;100.00
29385;BME280;16367;48.736;9.218;2023-04-02T09:24:24;-23450.09;;;8.91;100.00
29385;BME280;16367;48.736;9.218;2023-04-02T09:26:29;-23448.97;;;8.87;100.00
29385;BME280;16367;48.736;9.218;2023-04-02T09:28:32;-23447.38;;;8.82;100.00
29385;BME280;16367;48.736;9.218;2023-04-02T09:30:45;-23448.66;;;8.86;100.00
29385;BME280;16367;48.736;9.218;2023-04-02T09:32:56;-23448.50;;;8.86;100.00
29385;BME280;16367;48.736;9.218;2023-04-02T09:35:09;-23446.91;;;8.81;100.00
29385;BME280;16367;48.736;9.218;2023-04-02T09:37:26;-23442.94;;;8.68;100.00
29385;BME280;16367;48.736;9.218;2023-04-02T09:39:31;-23445.00;;;8.75;100.00
29385;BME280;16367;48.736;9.218;2023-04-02T09:41:35;-23449.13;;;8.88;100.00
29385;BME280;16367;48.736;9.218;2023-04-02T09:43:39;-23445.31;;;8.76;100.00
29385;BME280;16367;48.736;9.218;2023-04-02T09:45:42;-23448.81;;;8.87;100.00
29385;BME280;16367;48.736;9.218;2023-04-02T09:47:46;-23452.00;;;8.97;100.00
29385;BME280;16367;48.736;9.218;2023-04-02T09:49:50;-23445.00;;;8.75;100.00
29385;BME280;16367;48.736;9.218;2023-04-02T09:52:17;-23446.13;;;8.78;100.00
29385;BME280;16367;48.736;9.218;2023-04-02T09:54:20;-23445.31;;;8.76;100.00
29385;BME280;16367;48.736;9.218;2023-04-02T09:56:24;-23446.91;;;8.81;100.00
29385;BME280;16367;48.736;9.218;2023-04-02T09:58:27;-23445.16;;;8.75;100.00
29385;BME280;16367;48.736;9.218;2023-04-02T10:00:30;-23448.97;;;8.87;100.00
29385;BME280;16367;48.736;9.218;2023-04-02T10:02:33;-23447.53;;;8.83;100.00
29385;BME280;16367;48.736;9.218;2023-04-02T10:04:39;-23451.34;;;8.95;100.00
29385;BME280;16367;48.736;9.218;2023-04-02T10:06:49;-23455.78;;;9.09;100.00
29385;BME280;16367;48.736;9.218;2023-04-02T10:08:54;-23454.53;;;9.05;100.00
29385;BME280;16367;48.736;9.218;2023-04-02T10:10:59;-23453.72;;;9.02;100.00
29385;BME280;16367;48.736;9.218;2023-04-02T10:13:06;-23456.13;;;9.10;100.00
29385;BME280;16367;48.736;9.218;2023-04-02T10:15:14;-23458.66;;;9.18;100.00
29385;BME280;16367;48.736;9.218;2023-04-02T10:17:20;-23457.38;;;9.14;100.00
29385;BME280;16367;48.736;9.218;2023-04-02T10:19:29;-23451.66;;;8.96;100.00
29385;BME280;16367;48.736;9.218;2023-04-02T10:21:35;-23456.44;;;9.11;100.00
29385;BME280;16367;48.736;9.218;2023-04-02T10:23:39;-23461.50;;;9.27;100.00
29385;BME280;16367;48.736;9.218;2023-04-02T10:25:47;-23457.53;;;9.15;100.00
29385;BME280;16367;48.736;9.218;2023-04-02T10:27:56;-23459.59;;;9.21;100.00
29385;BME280;16367;48.736;9.218;2023-04-02T10:30:15;-23458.66;;;9.18;100.00
29385;BME280;16367;48.736;9.218;2023-04-02T10:32:23;-23464.38;;;9.36;100.00
29385;BME280;16367;48.736;9.218;2023-04-02T10:34:33;-23465.16;;;9.39;100.00
29385;BME280;16367;48.736;9.218;2023-04-02T10:36:45;-23471.97;;;9.60;100.00
29385;BME280;16367;48.736;9.218;2023-04-02T10:38:53;-23461.66;;;9.28;100.00
29385;BME280;16367;48.736;9.218;2023-04-02T10:41:06;-23467.22;;;9.45;100.00
29385;BME280;16367;48.736;9.218;2023-04-02T10:43:35;-23466.25;;;9.42;100.00
29385;BME280;16367;48.736;9.218;2023-04-02T10:45:45;-23470.69;;;9.56;100.00
29385;BME280;16367;48.736;9.218;2023-04-02T10:47:57;-23473.41;;;9.65;100.00
29385;BME280;16367;48.736;9.218;2023-04-02T10:50:17;-23473.72;;;9.66;100.00
29385;BME280;16367;48.736;9.218;2023-04-02T10:52:29;-23470.06;;;9.54;100.00
29385;BME280;16367;48.736;9.218;2023-04-02T10:54:39;-23471.34;;;9.58;100.00
29385;BME280;16367;48.736;9.218;2023-04-02T10:56:44;-23464.53;;;9.37;100.00
29385;BME280;16367;48.736;9.218;2023-04-02T10:58:54;-23469.91;;;9.54;99.83
29385;BME280;16367;48.736;9.218;2023-04-02T11:01:05;-23470.69;;;9.56;100.00
29385;BME280;16367;48.736;9.218;2023-04-02T11:03:14;-23472.28;;;9.61;100.00
29385;BME280;16367;48.736;9.218;2023-04-02T11:05:20;-23470.69;;;9.56;100.00
29385;BME280;16367;48.736;9.218;2023-04-02T11:07:27;-23470.53;;;9.56;100.00